sensor_id;sensor_type;location;lat;lon;timestamp;P1;durP1;ratioP1;P2;durP2;ratioP2
75071;SDS011;63651;55.728;38.022;2023-02-11T00:00:19;7.68;;;4.93;;
75071;SDS011;63651;55.728;38.022;2023-02-11T00:05:20;8.70;;;4.55;;
75071;SDS011;63651;55.728;38.022;2023-02-11T00:10:21;7.25;;;4.60;;
75071;SDS011;63651;55.728;38.022;2023-02-11T00:15:22;9.15;;;5.00;;
75071;SDS011;63651;55.728;38.022;2023-02-11T00:20:23;7.85;;;4.72;;
75071;SDS011;63651;55.728;38.022;2023-02-11T00:25:24;7.97;;;4.72;;
75071;SDS011;63651;55.728;38.022;2023-02-11T00:30:25;8.98;;;4.15;;
75071;SDS011;63651;55.728;38.022;2023-02-11T00:35:26;6.85;;;4.15;;
75071;SDS011;63651;55.728;38.022;2023-02-11T00:40:28;6.72;;;4.00;;
75071;SDS011;63651;55.728;38.022;2023-02-11T00:45:29;7.40;;;4.35;;
75071;SDS011;63651;55.728;38.022;2023-02-11T00:50:30;6.32;;;4.43;;
75071;SDS011;63651;55.728;38.022;2023-02-11T00:55:31;7.50;;;4.43;;
75071;SDS011;63651;55.728;38.022;2023-02-11T01:00:32;7.88;;;4.25;;
75071;SDS011;63651;55.728;38.022;2023-02-11T01:05:33;6.60;;;4.13;;
75071;SDS011;63651;55.728;38.022;2023-02-11T01:10:34;6.45;;;3.88;;
75071;SDS011;63651;55.728;38.022;2023-02-11T01:15:35;7.60;;;3.92;;
75071;SDS011;63651;55.728;38.022;2023-02-11T01:20:37;7.28;;;3.90;;
75071;SDS011;63651;55.728;38.022;2023-02-11T01:25:38;5.35;;;3.28;;
75071;SDS011;63651;55.728;38.022;2023-02-11T01:30:39;6.45;;;3.42;;
75071;SDS011;63651;55.728;38.022;2023-02-11T01:35:40;6.65;;;3.60;;
75071;SDS011;63651;55.728;38.022;2023-02-11T01:40:48;7.25;;;3.47;;
75071;SDS011;63651;55.728;38.022;2023-02-11T01:46:05;7.32;;;3.70;;
75071;SDS011;63651;55.728;38.022;2023-02-11T01:51:33;5.90;;;3.28;;
75071;SDS011;63651;55.728;38.022;2023-02-11T01:56:40;4.70;;;3.13;;
75071;SDS011;63651;55.728;38.022;2023-02-11T02:02:07;6.13;;;3.53;;
75071;SDS011;63651;55.728;38.022;2023-02-11T02:12:17;6.72;;;3.55;;
75071;SDS011;63651;55.728;38.022;2023-02-11T02:17:26;5.63;;;3.13;;
75071;SDS011;63651;55.728;38.022;2023-02-11T02:28:25;5.05;;;3.08;;
75071;SDS011;63651;55.728;38.022;2023-02-11T02:39:14;6.68;;;3.10;;
75071;SDS011;63651;55.728;38.022;2023-02-11T02:44:22;7.60;;;3.53;;
75071;SDS011;63651;55.728;38.022;2023-02-11T02:49:23;6.10;;;3.33;;
75071;SDS011;63651;55.728;38.022;2023-02-11T03:00:04;4.75;;;2.42;;
75071;SDS011;63651;55.728;38.022;2023-02-11T03:05:40;5.07;;;2.42;;
75071;SDS011;63651;55.728;38.022;2023-02-11T03:10:50;4.68;;;2.00;;
75071;SDS011;63651;55.728;38.022;2023-02-11T03:15:54;5.00;;;2.72;;
75071;SDS011;63651;55.728;38.022;2023-02-11T03:20:58;4.63;;;2.28;;
75071;SDS011;63651;55.728;38.022;2023-02-11T03:26:02;3.78;;;1.95;;
75071;SDS011;63651;55.728;38.022;2023-02-11T03:31:16;4.10;;;2.20;;
75071;SDS011;63651;55.728;38.022;2023-02-11T03:36:31;5.13;;;2.20;;
75071;SDS011;63651;55.728;38.022;2023-02-11T03:41:45;3.80;;;2.20;;
75071;SDS011;63651;55.728;38.022;2023-02-11T03:46:49;4.07;;;2.08;;
75071;SDS011;63651;55.728;38.022;2023-02-11T03:51:53;4.35;;;1.67;;
75071;SDS011;63651;55.728;38.022;2023-02-11T03:56:57;4.43;;;1.95;;
75071;SDS011;63651;55.728;38.022;2023-02-11T04:02:00;3.42;;;1.73;;
75071;SDS011;63651;55.728;38.022;2023-02-11T04:07:01;4.03;;;1.80;;
75071;SDS011;63651;55.728;38.022;2023-02-11T04:12:02;4.65;;;2.45;;
75071;SDS011;63651;55.728;38.022;2023-02-11T04:17:03;3.72;;;1.95;;
75071;SDS011;63651;55.728;38.022;2023-02-11T04:22:05;3.55;;;2.00;;
75071;SDS011;63651;55.728;38.022;2023-02-11T04:27:06;4.93;;;2.08;;
75071;SDS011;63651;55.728;38.022;2023-02-11T04:32:08;2.75;;;1.85;;
75071;SDS011;63651;55.728;38.022;2023-02-11T04:37:10;3.72;;;2.00;;
75071;SDS011;63651;55.728;38.022;2023-02-11T04:42:11;3.65;;;1.98;;
75071;SDS011;63651;55.728;38.022;2023-02-11T04:47:12;4.25;;;1.60;;
75071;SDS011;63651;55.728;38.022;2023-02-11T04:52:14;3.83;;;2.10;;
75071;SDS011;63651;55.728;38.022;2023-02-11T04:57:15;5.82;;;1.90;;
75071;SDS011;63651;55.728;38.022;2023-02-11T05:02:17;5.07;;;1.90;;
75071;SDS011;63651;55.728;38.022;2023-02-11T05:07:18;3.75;;;1.90;;
75071;SDS011;63651;55.728;38.022;2023-02-11T05:12:19;3.60;;;2.08;;
75071;SDS011;63651;55.728;38.022;2023-02-11T05:17:20;4.10;;;2.00;;
75071;SDS011;63651;55.728;38.022;2023-02-11T05:22:21;2.85;;;1.60;;
75071;SDS011;63651;55.728;38.022;2023-02-11T05:27:22;3.20;;;1.55;;
75071;SDS011;63651;55.728;38.022;2023-02-11T05:32:23;3.10;;;1.50;;
75071;SDS011;63651;55.728;38.022;2023-02-11T05:37:24;3.78;;;1.90;;
75071;SDS011;63651;55.728;38.022;2023-02-11T05:42:25;4.60;;;1.85;;
75071;SDS011;63651;55.728;38.022;2023-02-11T05:47:26;3.92;;;1.85;;
75071;SDS011;63651;55.728;38.022;2023-02-11T05:52:27;2.63;;;1.83;;
75071;SDS011;63651;55.728;38.022;2023-02-11T05:57:28;3.67;;;1.58;;
75071;SDS011;63651;55.728;38.022;2023-02-11T06:02:29;2.80;;;1.25;;
75071;SDS011;63651;55.728;38.022;2023-02-11T06:07:30;2.45;;;1.40;;
75071;SDS011;63651;55.728;38.022;2023-02-11T06:12:32;2.78;;;1.33;;
75071;SDS011;63651;55.728;38.022;2023-02-11T06:17:33;3.25;;;1.20;;
75071;SDS011;63651;55.728;38.022;2023-02-11T06:22:36;2.55;;;1.20;;
75071;SDS011;63651;55.728;38.022;2023-02-11T06:27:37;3.47;;;1.25;;
75071;SDS011;63651;55.728;38.022;2023-02-11T06:32:38;2.80;;;1.33;;
75071;SDS011;63651;55.728;38.022;2023-02-11T06:37:39;2.75;;;1.42;;
75071;SDS011;63651;55.728;38.022;2023-02-11T06:42:41;2.75;;;1.25;;
75071;SDS011;63651;55.728;38.022;2023-02-11T06:47:42;3.35;;;1.30;;
75071;SDS011;63651;55.728;38.022;2023-02-11T06:52:43;2.55;;;1.15;;
75071;SDS011;63651;55.728;38.022;2023-02-11T06:57:44;3.97;;;1.38;;
75071;SDS011;63651;55.728;38.022;2023-02-11T07:02:45;4.85;;;1.55;;
75071;SDS011;63651;55.728;38.022;2023-02-11T07:07:46;3.03;;;1.25;;
75071;SDS011;63651;55.728;38.022;2023-02-11T07:12:47;3.35;;;1.48;;
75071;SDS011;63651;55.728;38.022;2023-02-11T07:17:48;3.08;;;1.92;;
75071;SDS011;63651;55.728;38.022;2023-02-11T07:22:49;3.10;;;1.40;;
75071;SDS011;63651;55.728;38.022;2023-02-11T07:27:50;3.90;;;1.52;;
75071;SDS011;63651;55.728;38.022;2023-02-11T07:32:52;2.10;;;1.35;;
75071;SDS011;63651;55.728;38.022;2023-02-11T07:37:53;3.42;;;1.50;;
75071;SDS011;63651;55.728;38.022;2023-02-11T07:42:54;2.25;;;1.30;;
75071;SDS011;63651;55.728;38.022;2023-02-11T07:47:55;2.42;;;1.35;;
75071;SDS011;63651;55.728;38.022;2023-02-11T07:52:56;3.08;;;2.00;;
75071;SDS011;63651;55.728;38.022;2023-02-11T07:57:57;2.92;;;1.45;;
75071;SDS011;63651;55.728;38.022;2023-02-11T08:02:58;2.65;;;1.25;;
75071;SDS011;63651;55.728;38.022;2023-02-11T08:07:59;2.90;;;1.77;;
75071;SDS011;63651;55.728;38.022;2023-02-11T08:13:00;2.53;;;1.50;;
75071;SDS011;63651;55.728;38.022;2023-02-11T08:18:01;3.00;;;1.55;;
75071;SDS011;63651;55.728;38.022;2023-02-11T08:23:04;2.30;;;1.52;;
75071;SDS011;63651;55.728;38.022;2023-02-11T08:28:06;2.85;;;1.33;;
75071;SDS011;63651;55.728;38.022;2023-02-11T08:33:08;2.53;;;1.45;;
75071;SDS011;63651;55.728;38.022;2023-02-11T08:38:09;3.92;;;1.30;;
75071;SDS011;63651;55.728;38.022;2023-02-11T08:43:10;2.20;;;1.30;;
75071;SDS011;63651;55.728;38.022;2023-02-11T08:48:11;2.47;;;1.60;;
75071;SDS011;63651;55.728;38.022;2023-02-11T08:53:12;2.15;;;1.58;;
75071;SDS011;63651;55.728;38.022;2023-02-11T08:58:13;2.33;;;1.58;;
75071;SDS011;63651;55.728;38.022;2023-02-11T09:03:15;3.10;;;1.85;;
75071;SDS011;63651;55.728;38.022;2023-02-11T09:08:16;2.83;;;1.45;;
75071;SDS011;63651;55.728;38.022;2023-02-11T09:13:17;3.75;;;2.03;;
75071;SDS011;63651;55.728;38.022;2023-02-11T09:18:18;3.50;;;1.83;;
75071;SDS011;63651;55.728;38.022;2023-02-11T09:23:19;3.55;;;2.13;;
75071;SDS011;63651;55.728;38.022;2023-02-11T09:28:20;3.38;;;1.92;;
75071;SDS011;63651;55.728;38.022;2023-02-11T09:33:21;3.42;;;1.95;;
75071;SDS011;63651;55.728;38.022;2023-02-11T09:38:22;2.40;;;2.10;;
75071;SDS011;63651;55.728;38.022;2023-02-11T09:43:45;2.85;;;1.77;;
75071;SDS011;63651;55.728;38.022;2023-02-11T09:48:48;3.28;;;1.90;;
75071;SDS011;63651;55.728;38.022;2023-02-11T09:53:52;2.90;;;1.75;;
75071;SDS011;63651;55.728;38.022;2023-02-11T09:58:57;2.33;;;1.70;;
75071;SDS011;63651;55.728;38.022;2023-02-11T10:25:56;2.65;;;1.70;;
75071;SDS011;63651;55.728;38.022;2023-02-11T10:31:41;2.05;;;1.60;;
75071;SDS011;63651;55.728;38.022;2023-02-11T10:36:36;2.63;;;1.90;;
75071;SDS011;63651;55.728;38.022;2023-02-11T10:41:42;2.28;;;1.73;;
75071;SDS011;63651;55.728;38.022;2023-02-11T10:46:45;3.83;;;1.98;;
75071;SDS011;63651;55.728;38.022;2023-02-11T10:51:47;1.95;;;1.60;;
75071;SDS011;63651;55.728;38.022;2023-02-11T10:56:50;2.58;;;1.50;;
75071;SDS011;63651;55.728;38.022;2023-02-11T11:02:03;2.42;;;1.58;;
75071;SDS011;63651;55.728;38.022;2023-02-11T11:07:24;3.45;;;1.70;;
75071;SDS011;63651;55.728;38.022;2023-02-11T11:17:46;2.83;;;1.70;;
75071;SDS011;63651;55.728;38.022;2023-02-11T11:22:50;4.07;;;1.80;;
75071;SDS011;63651;55.728;38.022;2023-02-11T11:27:58;3.38;;;2.22;;
75071;SDS011;63651;55.728;38.022;2023-02-11T11:33:00;2.72;;;2.10;;
75071;SDS011;63651;55.728;38.022;2023-02-11T11:38:02;2.58;;;1.83;;
75071;SDS011;63651;55.728;38.022;2023-02-11T11:48:15;4.03;;;1.65;;
75071;SDS011;63651;55.728;38.022;2023-02-11T11:58:36;3.35;;;1.98;;
75071;SDS011;63651;55.728;38.022;2023-02-11T12:09:15;3.22;;;2.05;;
75071;SDS011;63651;55.728;38.022;2023-02-11T12:30:46;4.75;;;2.50;;
75071;SDS011;63651;55.728;38.022;2023-02-11T12:35:54;4.45;;;2.30;;
75071;SDS011;63651;55.728;38.022;2023-02-11T12:47:08;4.32;;;2.60;;
75071;SDS011;63651;55.728;38.022;2023-02-11T12:52:30;4.53;;;2.63;;
75071;SDS011;63651;55.728;38.022;2023-02-11T12:57:46;4.03;;;2.42;;
75071;SDS011;63651;55.728;38.022;2023-02-11T13:24:46;4.88;;;3.00;;
75071;SDS011;63651;55.728;38.022;2023-02-11T13:35:29;5.38;;;2.55;;
75071;SDS011;63651;55.728;38.022;2023-02-11T13:40:37;3.75;;;2.28;;
75071;SDS011;63651;55.728;38.022;2023-02-11T13:45:41;5.13;;;2.50;;
75071;SDS011;63651;55.728;38.022;2023-02-11T13:50:48;4.82;;;3.13;;
75071;SDS011;63651;55.728;38.022;2023-02-11T13:55:51;4.45;;;2.75;;
75071;SDS011;63651;55.728;38.022;2023-02-11T14:01:09;8.07;;;2.90;;
75071;SDS011;63651;55.728;38.022;2023-02-11T14:06:11;4.50;;;3.17;;
75071;SDS011;63651;55.728;38.022;2023-02-11T14:22:12;5.40;;;2.85;;
75071;SDS011;63651;55.728;38.022;2023-02-11T14:43:43;8.10;;;2.45;;
75071;SDS011;63651;55.728;38.022;2023-02-11T14:48:52;4.70;;;2.88;;
75071;SDS011;63651;55.728;38.022;2023-02-11T14:54:00;4.95;;;3.28;;
75071;SDS011;63651;55.728;38.022;2023-02-11T14:59:17;4.95;;;2.67;;
75071;SDS011;63651;55.728;38.022;2023-02-11T15:04:25;5.82;;;2.95;;
75071;SDS011;63651;55.728;38.022;2023-02-11T15:09:43;4.80;;;2.75;;
75071;SDS011;63651;55.728;38.022;2023-02-11T15:14:47;4.85;;;2.88;;
75071;SDS011;63651;55.728;38.022;2023-02-11T15:19:53;6.57;;;2.90;;
75071;SDS011;63651;55.728;38.022;2023-02-11T15:25:02;6.45;;;2.85;;
75071;SDS011;63651;55.728;38.022;2023-02-11T15:30:22;5.07;;;2.67;;
75071;SDS011;63651;55.728;38.022;2023-02-11T15:35:25;5.80;;;3.25;;
75071;SDS011;63651;55.728;38.022;2023-02-11T15:40:29;6.78;;;2.95;;
75071;SDS011;63651;55.728;38.022;2023-02-11T15:45:36;5.03;;;2.67;;
75071;SDS011;63651;55.728;38.022;2023-02-11T15:50:40;6.97;;;2.75;;
75071;SDS011;63651;55.728;38.022;2023-02-11T15:55:42;4.13;;;3.20;;
75071;SDS011;63651;55.728;38.022;2023-02-11T16:00:47;5.00;;;3.28;;
75071;SDS011;63651;55.728;38.022;2023-02-11T16:05:50;5.75;;;3.33;;
75071;SDS011;63651;55.728;38.022;2023-02-11T16:10:53;5.97;;;3.13;;
75071;SDS011;63651;55.728;38.022;2023-02-11T16:16:03;6.00;;;2.92;;
75071;SDS011;63651;55.728;38.022;2023-02-11T16:21:17;4.40;;;2.75;;
75071;SDS011;63651;55.728;38.022;2023-02-11T16:31:30;5.40;;;2.70;;
75071;SDS011;63651;55.728;38.022;2023-02-11T16:36:33;5.28;;;2.92;;
75071;SDS011;63651;55.728;38.022;2023-02-11T16:41:34;4.20;;;2.80;;
75071;SDS011;63651;55.728;38.022;2023-02-11T16:46:35;5.55;;;2.92;;
75071;SDS011;63651;55.728;38.022;2023-02-11T16:51:38;5.13;;;2.88;;
75071;SDS011;63651;55.728;38.022;2023-02-11T16:56:41;4.95;;;2.83;;
75071;SDS011;63651;55.728;38.022;2023-02-11T17:01:42;6.68;;;2.63;;
75071;SDS011;63651;55.728;38.022;2023-02-11T17:06:44;4.95;;;2.85;;
75071;SDS011;63651;55.728;38.022;2023-02-11T17:11:47;4.88;;;2.60;;
75071;SDS011;63651;55.728;38.022;2023-02-11T17:16:49;4.45;;;2.63;;
75071;SDS011;63651;55.728;38.022;2023-02-11T17:21:51;3.83;;;2.63;;
75071;SDS011;63651;55.728;38.022;2023-02-11T17:26:52;4.75;;;2.55;;
75071;SDS011;63651;55.728;38.022;2023-02-11T17:31:54;4.78;;;2.78;;
75071;SDS011;63651;55.728;38.022;2023-02-11T17:36:56;5.53;;;2.45;;
75071;SDS011;63651;55.728;38.022;2023-02-11T17:41:59;4.20;;;2.45;;
75071;SDS011;63651;55.728;38.022;2023-02-11T17:47:01;4.88;;;2.72;;
75071;SDS011;63651;55.728;38.022;2023-02-11T17:52:03;4.68;;;2.75;;
75071;SDS011;63651;55.728;38.022;2023-02-11T17:57:04;4.10;;;2.50;;
75071;SDS011;63651;55.728;38.022;2023-02-11T18:02:05;3.92;;;2.13;;
75071;SDS011;63651;55.728;38.022;2023-02-11T18:07:07;5.05;;;2.85;;
75071;SDS011;63651;55.728;38.022;2023-02-11T18:12:08;6.43;;;3.35;;
75071;SDS011;63651;55.728;38.022;2023-02-11T18:17:10;5.00;;;2.92;;
75071;SDS011;63651;55.728;38.022;2023-02-11T18:22:11;4.50;;;3.25;;
75071;SDS011;63651;55.728;38.022;2023-02-11T18:27:14;6.25;;;3.30;;
75071;SDS011;63651;55.728;38.022;2023-02-11T18:32:16;5.10;;;3.03;;
75071;SDS011;63651;55.728;38.022;2023-02-11T18:37:17;5.57;;;3.45;;
75071;SDS011;63651;55.728;38.022;2023-02-11T18:42:18;5.63;;;3.15;;
75071;SDS011;63651;55.728;38.022;2023-02-11T18:47:19;7.05;;;3.75;;
75071;SDS011;63651;55.728;38.022;2023-02-11T18:52:20;5.70;;;3.60;;
75071;SDS011;63651;55.728;38.022;2023-02-11T18:57:21;6.70;;;3.63;;
75071;SDS011;63651;55.728;38.022;2023-02-11T19:02:22;6.95;;;4.10;;
75071;SDS011;63651;55.728;38.022;2023-02-11T19:07:24;6.07;;;3.78;;
75071;SDS011;63651;55.728;38.022;2023-02-11T19:12:25;5.70;;;3.83;;
75071;SDS011;63651;55.728;38.022;2023-02-11T19:17:26;5.82;;;3.40;;
75071;SDS011;63651;55.728;38.022;2023-02-11T19:22:28;6.85;;;3.85;;
75071;SDS011;63651;55.728;38.022;2023-02-11T19:27:29;7.18;;;4.18;;
75071;SDS011;63651;55.728;38.022;2023-02-11T19:32:30;6.75;;;3.47;;
75071;SDS011;63651;55.728;38.022;2023-02-11T19:37:31;7.35;;;3.70;;
75071;SDS011;63651;55.728;38.022;2023-02-11T19:42:32;7.30;;;4.13;;
75071;SDS011;63651;55.728;38.022;2023-02-11T19:47:33;6.15;;;4.18;;
75071;SDS011;63651;55.728;38.022;2023-02-11T19:52:37;6.13;;;3.80;;
75071;SDS011;63651;55.728;38.022;2023-02-11T19:57:40;5.28;;;3.65;;
75071;SDS011;63651;55.728;38.022;2023-02-11T20:02:41;6.43;;;3.80;;
75071;SDS011;63651;55.728;38.022;2023-02-11T20:07:42;5.90;;;3.17;;
75071;SDS011;63651;55.728;38.022;2023-02-11T20:12:43;6.53;;;3.47;;
75071;SDS011;63651;55.728;38.022;2023-02-11T20:17:44;5.28;;;3.05;;
75071;SDS011;63651;55.728;38.022;2023-02-11T20:22:45;4.68;;;3.38;;
75071;SDS011;63651;55.728;38.022;2023-02-11T20:27:46;5.10;;;3.10;;
75071;SDS011;63651;55.728;38.022;2023-02-11T20:32:47;6.75;;;3.30;;
75071;SDS011;63651;55.728;38.022;2023-02-11T20:37:49;5.13;;;3.13;;
75071;SDS011;63651;55.728;38.022;2023-02-11T20:42:50;4.93;;;2.90;;
75071;SDS011;63651;55.728;38.022;2023-02-11T20:47:51;5.53;;;3.47;;
75071;SDS011;63651;55.728;38.022;2023-02-11T20:52:54;6.10;;;3.50;;
75071;SDS011;63651;55.728;38.022;2023-02-11T20:57:55;4.50;;;3.03;;
75071;SDS011;63651;55.728;38.022;2023-02-11T21:02:56;4.97;;;2.78;;
75071;SDS011;63651;55.728;38.022;2023-02-11T21:07:57;8.02;;;3.28;;
75071;SDS011;63651;55.728;38.022;2023-02-11T21:12:58;5.80;;;2.75;;
75071;SDS011;63651;55.728;38.022;2023-02-11T21:18:00;5.40;;;3.22;;
75071;SDS011;63651;55.728;38.022;2023-02-11T21:23:01;6.10;;;3.45;;
75071;SDS011;63651;55.728;38.022;2023-02-11T21:28:02;6.07;;;3.33;;
75071;SDS011;63651;55.728;38.022;2023-02-11T21:33:03;3.90;;;2.70;;
75071;SDS011;63651;55.728;38.022;2023-02-11T21:38:05;4.50;;;3.20;;
75071;SDS011;63651;55.728;38.022;2023-02-11T21:43:06;4.70;;;2.65;;
75071;SDS011;63651;55.728;38.022;2023-02-11T21:48:07;4.32;;;2.63;;
75071;SDS011;63651;55.728;38.022;2023-02-11T21:53:09;4.57;;;3.05;;
75071;SDS011;63651;55.728;38.022;2023-02-11T21:58:11;4.65;;;2.53;;
75071;SDS011;63651;55.728;38.022;2023-02-11T22:03:13;4.20;;;2.72;;
75071;SDS011;63651;55.728;38.022;2023-02-11T22:08:14;5.05;;;2.75;;
75071;SDS011;63651;55.728;38.022;2023-02-11T22:13:15;3.17;;;2.28;;
75071;SDS011;63651;55.728;38.022;2023-02-11T22:18:17;4.22;;;2.72;;
75071;SDS011;63651;55.728;38.022;2023-02-11T22:23:18;4.65;;;2.88;;
75071;SDS011;63651;55.728;38.022;2023-02-11T22:28:19;4.40;;;2.95;;
75071;SDS011;63651;55.728;38.022;2023-02-11T22:33:20;3.65;;;3.00;;
75071;SDS011;63651;55.728;38.022;2023-02-11T22:38:26;4.90;;;3.33;;
75071;SDS011;63651;55.728;38.022;2023-02-11T22:43:28;5.03;;;3.17;;
75071;SDS011;63651;55.728;38.022;2023-02-11T22:48:29;4.40;;;3.20;;
75071;SDS011;63651;55.728;38.022;2023-02-11T22:53:30;5.05;;;3.60;;
75071;SDS011;63651;55.728;38.022;2023-02-11T22:58:32;4.70;;;3.10;;
75071;SDS011;63651;55.728;38.022;2023-02-11T23:03:34;4.85;;;3.10;;
75071;SDS011;63651;55.728;38.022;2023-02-11T23:08:36;4.63;;;3.20;;
75071;SDS011;63651;55.728;38.022;2023-02-11T23:13:39;3.35;;;2.92;;
75071;SDS011;63651;55.728;38.022;2023-02-11T23:18:42;4.10;;;2.95;;
75071;SDS011;63651;55.728;38.022;2023-02-11T23:23:44;4.43;;;3.30;;
75071;SDS011;63651;55.728;38.022;2023-02-11T23:28:45;5.95;;;3.63;;
75071;SDS011;63651;55.728;38.022;2023-02-11T23:33:46;5.03;;;3.50;;
75071;SDS011;63651;55.728;38.022;2023-02-11T23:38:48;4.93;;;3.70;;
75071;SDS011;63651;55.728;38.022;2023-02-11T23:43:51;4.35;;;3.20;;
75071;SDS011;63651;55.728;38.022;2023-02-11T23:48:53;5.45;;;3.75;;
75071;SDS011;63651;55.728;38.022;2023-02-11T23:53:54;4.80;;;3.60;;
75071;SDS011;63651;55.728;38.022;2023-02-11T23:58:56;4.47;;;3.42;;
